createdAt,value
2022-09-21T00:01:28.123Z,1.00
2022-09-21T00:04:02.295Z,0.57
2022-09-21T00:06:32.433Z,0.70
2022-09-21T00:08:59.230Z,0.57
2022-09-21T00:11:30.942Z,0.63
2022-09-21T00:14:10.707Z,0.60
2022-09-21T00:16:38.042Z,0.80
2022-09-21T00:19:06.833Z,0.60
2022-09-21T00:21:34.382Z,0.80
2022-09-21T00:24:04.468Z,0.50
2022-09-21T00:26:37.528Z,0.60
2022-09-21T00:29:05.048Z,0.70
2022-09-21T00:31:35.199Z,0.57
2022-09-21T00:34:03.611Z,0.30
2022-09-21T00:36:30.319Z,0.60
2022-09-21T00:39:03.954Z,0.60
2022-09-21T00:41:35.924Z,0.50
2022-09-21T00:44:24.074Z,0.50
2022-09-21T00:46:53.146Z,0.67
2022-09-21T00:49:21.891Z,0.40
2022-09-21T00:51:53.193Z,0.50
2022-09-21T00:54:51.152Z,0.50
2022-09-21T00:57:30.982Z,0.60
2022-09-21T01:00:01.370Z,0.40
2022-09-21T01:02:28.500Z,0.60
2022-09-21T01:04:58.483Z,0.50
2022-09-21T01:07:29.592Z,0.40
2022-09-21T01:10:00.377Z,0.57
2022-09-21T01:12:53.318Z,0.50
2022-09-21T01:15:35.546Z,0.53
2022-09-21T01:18:26.909Z,0.40
2022-09-21T01:20:58.639Z,0.50
2022-09-21T01:23:48.993Z,0.40
2022-09-21T01:26:29.218Z,0.60
2022-09-21T01:29:19.006Z,0.60
2022-09-21T01:32:05.462Z,0.70
2022-09-21T01:34:45.081Z,0.60
2022-09-21T01:37:21.765Z,0.70
2022-09-21T01:39:55.105Z,0.40
2022-09-21T01:42:27.714Z,0.60
2022-09-21T01:45:00.595Z,0.50
2022-09-21T01:47:31.597Z,0.40
2022-09-21T01:50:02.070Z,0.63
2022-09-21T01:52:41.942Z,0.50
2022-09-21T01:55:38.279Z,0.43
2022-09-21T01:58:17.584Z,0.40
2022-09-21T02:00:48.283Z,0.60
2022-09-21T02:03:36.514Z,0.47
2022-09-21T02:06:04.098Z,0.50
2022-09-21T02:08:35.292Z,0.40
2022-09-21T02:11:03.123Z,0.30
2022-09-21T02:13:37.707Z,0.50
2022-09-21T02:16:08.630Z,0.73
2022-09-21T02:18:43.637Z,0.57
2022-09-21T02:21:19.638Z,0.50
2022-09-21T02:24:06.956Z,0.50
2022-09-21T02:26:49.353Z,0.40
2022-09-21T02:29:47.266Z,0.60
2022-09-21T02:32:33.519Z,0.60
2022-09-21T02:35:08.073Z,0.50
2022-09-21T02:37:45.207Z,0.40
2022-09-21T02:40:35.163Z,0.60
2022-09-21T02:43:09.387Z,0.50
2022-09-21T02:45:45.241Z,0.50
2022-09-21T02:48:17.053Z,0.63
2022-09-21T02:50:54.378Z,0.60
2022-09-21T02:53:27.907Z,0.50
2022-09-21T02:55:58.150Z,0.67
2022-09-21T02:58:27.141Z,0.50
2022-09-21T03:00:56.690Z,0.50
2022-09-21T03:03:26.317Z,0.67
2022-09-21T03:05:55.534Z,0.60
2022-09-21T03:08:22.908Z,0.50
2022-09-21T03:10:50.856Z,0.70
2022-09-21T03:13:18.999Z,0.53
2022-09-21T03:15:46.563Z,0.70
2022-09-21T03:18:13.791Z,0.43
2022-09-21T03:20:48.442Z,0.40
2022-09-21T03:23:15.078Z,0.60
2022-09-21T03:25:45.682Z,0.60
2022-09-21T03:28:13.557Z,0.70
2022-09-21T03:30:40.647Z,0.43
2022-09-21T03:33:08.358Z,0.60
2022-09-21T03:35:35.019Z,0.53
2022-09-21T03:38:02.553Z,0.80
2022-09-21T03:40:29.331Z,0.60
2022-09-21T03:42:56.236Z,0.60
2022-09-21T03:45:23.193Z,0.60
2022-09-21T03:47:49.783Z,0.40
2022-09-21T03:50:16.711Z,0.40
2022-09-21T03:52:43.359Z,0.60
2022-09-21T03:55:10.038Z,0.80
2022-09-21T03:57:36.902Z,0.70
2022-09-21T04:00:06.665Z,0.47
2022-09-21T04:02:33.405Z,0.73
2022-09-21T04:05:00.138Z,0.60
2022-09-21T04:07:26.878Z,0.50
2022-09-21T04:09:54.085Z,0.50
2022-09-21T04:12:24.004Z,0.67
2022-09-21T04:14:50.589Z,0.67
2022-09-21T04:17:17.422Z,1.50
2022-09-21T04:19:47.906Z,4.50
2022-09-21T04:22:14.842Z,4.00
2022-09-21T04:24:41.511Z,4.40
2022-09-21T04:27:09.138Z,3.10
2022-09-21T04:29:36.357Z,3.27
2022-09-21T04:32:03.372Z,2.10
2022-09-21T04:34:31.210Z,2.50
2022-09-21T04:36:59.139Z,2.10
2022-09-21T04:39:26.431Z,2.20
2022-09-21T04:41:53.185Z,1.80
2022-09-21T04:44:19.861Z,1.17
2022-09-21T04:46:46.808Z,1.30
2022-09-21T04:49:13.502Z,1.27
2022-09-21T04:51:40.304Z,0.90
2022-09-21T04:54:06.934Z,1.00
2022-09-21T04:56:33.821Z,1.10
2022-09-21T04:59:00.685Z,1.23
2022-09-21T05:01:27.895Z,1.10
2022-09-21T05:03:57.758Z,1.50
2022-09-21T05:06:24.526Z,0.80
2022-09-21T05:09:09.502Z,1.03
2022-09-21T05:11:36.340Z,1.13
2022-09-21T05:14:03.345Z,1.20
2022-09-21T05:16:32.217Z,1.83
2022-09-21T05:18:58.904Z,1.70
2022-09-21T05:21:26.168Z,1.17
2022-09-21T05:23:52.797Z,1.47
2022-09-21T05:26:19.966Z,2.57
2022-09-21T05:28:46.953Z,1.80
2022-09-21T05:31:31.770Z,4.00
2022-09-21T05:34:17.042Z,6.10
2022-09-21T05:36:50.053Z,9.87
2022-09-21T05:39:17.058Z,6.87
2022-09-21T05:41:44.023Z,4.93
2022-09-21T05:44:14.464Z,5.20
2022-09-21T05:47:04.770Z,4.40
2022-09-21T05:49:49.884Z,5.03
2022-09-21T05:52:47.440Z,3.13
2022-09-21T05:55:52.053Z,2.90
2022-09-21T05:58:47.415Z,2.03
2022-09-21T06:01:28.321Z,1.70
2022-09-21T06:03:56.821Z,1.30
2022-09-21T06:06:23.589Z,1.27
2022-09-21T06:08:50.280Z,1.67
2022-09-21T06:11:17.238Z,1.27
2022-09-21T06:13:44.109Z,1.50
2022-09-21T06:16:11.493Z,1.40
2022-09-21T06:18:39.999Z,0.83
2022-09-21T06:21:12.789Z,1.10
2022-09-21T06:23:39.418Z,1.10
2022-09-21T06:26:09.153Z,1.20
2022-09-21T06:28:35.745Z,1.30
2022-09-21T06:31:05.213Z,0.93
2022-09-21T06:33:31.910Z,1.00
2022-09-21T06:36:01.074Z,0.90
2022-09-21T06:38:29.179Z,0.83
2022-09-21T06:41:00.849Z,0.97
2022-09-21T06:43:27.479Z,1.00
2022-09-21T06:46:04.169Z,0.70
2022-09-21T06:48:35.393Z,0.70
2022-09-21T06:51:04.115Z,0.80
2022-09-21T06:53:34.216Z,1.07
2022-09-21T06:56:05.971Z,0.90
2022-09-21T06:58:34.690Z,0.87
2022-09-21T07:01:14.512Z,1.20
2022-09-21T07:03:43.023Z,0.73
2022-09-21T07:06:18.124Z,1.23
2022-09-21T07:11:37.636Z,0.70
2022-09-21T07:14:07.486Z,0.80
2022-09-21T07:16:34.143Z,1.10
2022-09-21T07:19:10.739Z,0.87
2022-09-21T07:21:38.146Z,1.30
2022-09-21T07:24:11.208Z,0.67
2022-09-21T07:26:42.028Z,0.90
2022-09-21T07:29:08.755Z,0.87
2022-09-21T07:31:35.766Z,0.70
2022-09-21T07:34:02.542Z,0.90
2022-09-21T07:36:29.242Z,0.90
2022-09-21T07:38:58.094Z,0.63
2022-09-21T07:41:24.787Z,0.90
2022-09-21T07:43:52.228Z,0.67
2022-09-21T07:46:18.943Z,0.60
2022-09-21T07:48:50.955Z,0.73
2022-09-21T07:51:20.784Z,0.80
2022-09-21T07:53:56.689Z,0.50
2022-09-21T07:56:23.723Z,0.50
2022-09-21T07:59:08.667Z,0.60
2022-09-21T08:01:40.213Z,0.57
2022-09-21T08:04:11.206Z,0.63
2022-09-21T08:06:40.281Z,0.77
2022-09-21T08:09:08.577Z,0.50
2022-09-21T08:11:36.059Z,0.40
2022-09-21T08:14:06.207Z,0.60
2022-09-21T08:16:38.204Z,0.40
2022-09-21T08:19:05.478Z,0.40
2022-09-21T08:21:38.190Z,0.43
2022-09-21T08:24:05.157Z,0.40
2022-09-21T08:26:31.864Z,0.60
2022-09-21T08:29:01.331Z,0.40
2022-09-21T08:31:28.280Z,0.43
2022-09-21T08:33:59.553Z,0.40
2022-09-21T08:36:29.362Z,0.30
2022-09-21T08:38:57.009Z,0.30
2022-09-21T08:41:58.636Z,0.43
2022-09-21T08:44:51.293Z,0.27
2022-09-21T08:47:40.479Z,0.40
2022-09-21T08:50:38.080Z,0.50
2022-09-21T08:53:08.464Z,0.40
2022-09-21T08:55:35.282Z,0.40
2022-09-21T08:58:03.764Z,0.50
2022-09-21T09:00:38.246Z,0.50
2022-09-21T09:03:30.201Z,0.27
2022-09-21T09:06:26.671Z,0.40
2022-09-21T09:09:08.939Z,0.40
2022-09-21T09:11:54.452Z,0.40
2022-09-21T09:14:57.800Z,0.20
2022-09-21T09:17:49.324Z,0.23
2022-09-21T09:20:18.894Z,0.50
2022-09-21T09:23:00.571Z,0.40
2022-09-21T09:25:29.080Z,0.40
2022-09-21T09:28:05.250Z,0.23
2022-09-21T09:30:34.942Z,0.80
2022-09-21T09:33:19.977Z,0.20
2022-09-21T09:35:52.483Z,0.23
2022-09-21T09:38:32.096Z,0.30
2022-09-21T09:41:36.544Z,0.50
2022-09-21T09:44:31.568Z,0.27
2022-09-21T09:47:29.247Z,0.30
2022-09-21T09:50:08.022Z,0.33
2022-09-21T09:52:37.967Z,0.30
2022-09-21T09:55:27.380Z,0.40
2022-09-21T09:57:55.883Z,0.30
2022-09-21T10:00:23.062Z,0.30
2022-09-21T10:02:56.082Z,0.30
2022-09-21T10:05:45.388Z,0.33
2022-09-21T10:08:39.311Z,0.43
2022-09-21T10:11:09.170Z,0.30
2022-09-21T10:13:40.639Z,0.57
2022-09-21T10:16:15.403Z,0.40
2022-09-21T10:19:01.757Z,0.30
2022-09-21T10:21:35.638Z,0.33
2022-09-21T10:24:06.341Z,0.30
2022-09-21T10:26:42.158Z,0.20
2022-09-21T10:29:29.387Z,0.20
2022-09-21T10:32:03.474Z,0.30
2022-09-21T10:34:35.281Z,0.30
2022-09-21T10:37:23.027Z,0.40
2022-09-21T10:39:49.624Z,0.30
2022-09-21T10:42:18.974Z,0.20
2022-09-21T10:44:50.798Z,0.30
2022-09-21T10:47:41.018Z,0.30
2022-09-21T10:50:43.680Z,0.30
2022-09-21T10:53:10.213Z,0.30
2022-09-21T10:56:11.822Z,0.20
2022-09-21T10:58:39.847Z,0.40
2022-09-21T11:01:23.550Z,0.30
2022-09-21T11:04:03.134Z,0.57
2022-09-21T11:06:36.547Z,0.40
2022-09-21T11:09:12.526Z,0.20
2022-09-21T11:11:58.163Z,0.20
2022-09-21T11:14:27.602Z,0.17
2022-09-21T11:17:22.072Z,0.30
2022-09-21T11:20:03.171Z,0.30
2022-09-21T11:22:43.522Z,0.30
2022-09-21T11:25:32.418Z,0.23
2022-09-21T11:28:24.326Z,0.30
2022-09-21T11:31:14.713Z,0.20
2022-09-21T11:34:04.305Z,0.20
2022-09-21T11:36:36.716Z,0.20
2022-09-21T11:39:14.433Z,0.30
2022-09-21T11:41:53.781Z,0.20
2022-09-21T11:44:49.283Z,0.30
2022-09-21T11:47:24.783Z,0.30
2022-09-21T11:50:19.585Z,0.10
2022-09-21T11:52:52.899Z,0.23
2022-09-21T11:56:01.041Z,0.20
2022-09-21T11:58:40.861Z,0.23
2022-09-21T12:01:22.507Z,0.30
2022-09-21T12:03:57.808Z,0.20
2022-09-21T12:06:35.293Z,0.10
2022-09-21T12:09:34.641Z,0.20
2022-09-21T12:12:04.457Z,0.20
2022-09-21T12:14:46.366Z,0.20
2022-09-21T12:17:21.275Z,0.30
2022-09-21T12:20:18.041Z,0.30
2022-09-21T12:22:47.634Z,0.20
2022-09-21T12:25:40.904Z,0.27
2022-09-21T12:28:10.518Z,0.20
2022-09-21T12:30:42.537Z,0.30
2022-09-21T12:33:21.598Z,0.20
2022-09-21T12:35:55.084Z,0.20
2022-09-21T12:38:27.631Z,0.20
2022-09-21T12:41:18.842Z,0.13
2022-09-21T12:44:00.354Z,0.40
2022-09-21T12:46:52.917Z,0.20
2022-09-21T12:49:31.622Z,0.10
2022-09-21T12:52:06.858Z,0.20
2022-09-21T12:54:48.004Z,0.27
2022-09-21T12:57:53.669Z,0.40
2022-09-21T13:00:23.006Z,0.20
2022-09-21T13:03:10.434Z,0.30
2022-09-21T13:05:49.488Z,0.20
2022-09-21T13:08:19.199Z,0.20
2022-09-21T13:10:55.325Z,0.30
2022-09-21T13:13:30.420Z,0.17
2022-09-21T13:15:59.450Z,0.30
2022-09-21T13:18:38.003Z,0.30
2022-09-21T13:21:24.250Z,0.20
2022-09-21T13:24:03.181Z,0.10
2022-09-21T13:26:41.747Z,0.60
2022-09-21T13:29:32.134Z,0.67
2022-09-21T13:32:09.583Z,0.63
2022-09-21T13:34:39.143Z,0.70
2022-09-21T13:37:11.779Z,0.40
2022-09-21T13:39:50.441Z,0.40
2022-09-21T13:42:32.309Z,0.60
2022-09-21T13:45:05.131Z,0.20
2022-09-21T13:47:38.520Z,0.27
2022-09-21T13:50:38.399Z,0.30
2022-09-21T13:53:20.391Z,0.30
2022-09-21T13:56:00.946Z,0.20
2022-09-21T13:58:37.550Z,0.20
2022-09-21T14:01:35.582Z,0.40
2022-09-21T14:04:21.594Z,0.40
2022-09-21T14:06:52.186Z,0.30
2022-09-21T14:10:11.513Z,0.47
2022-09-21T14:12:45.485Z,0.30
2022-09-21T14:15:19.502Z,0.20
2022-09-21T14:18:12.227Z,0.27
2022-09-21T14:20:39.805Z,0.70
2022-09-21T14:23:16.287Z,0.20
2022-09-21T14:25:54.482Z,0.20
2022-09-21T14:28:27.595Z,0.40
2022-09-21T14:31:01.783Z,0.20
2022-09-21T14:33:35.500Z,0.20
2022-09-21T14:36:08.764Z,0.30
2022-09-21T14:38:45.424Z,0.30
2022-09-21T14:41:20.631Z,0.23
2022-09-21T14:43:52.339Z,0.50
2022-09-21T14:47:04.235Z,0.30
2022-09-21T14:49:52.592Z,0.50
2022-09-21T14:52:47.854Z,0.20
2022-09-21T14:55:25.973Z,0.30
2022-09-21T14:58:04.735Z,0.23
2022-09-21T15:00:43.645Z,0.23
2022-09-21T15:03:39.205Z,0.20
2022-09-21T15:07:00.882Z,0.30
2022-09-21T15:10:18.051Z,0.20
2022-09-21T15:12:54.332Z,0.40
2022-09-21T15:15:47.114Z,0.10
2022-09-21T15:18:22.041Z,0.20
2022-09-21T15:21:04.093Z,0.30
2022-09-21T15:23:41.239Z,0.20
2022-09-21T15:26:10.590Z,0.20
2022-09-21T15:29:07.910Z,0.37
2022-09-21T15:31:41.447Z,0.50
2022-09-21T15:34:10.983Z,0.50
2022-09-21T15:36:40.475Z,0.50
2022-09-21T15:39:20.875Z,0.50
2022-09-21T15:41:49.441Z,0.60
2022-09-21T15:44:23.985Z,0.40
2022-09-21T15:47:00.255Z,0.73
2022-09-21T15:49:29.802Z,0.40
2022-09-21T15:52:06.487Z,0.57
2022-09-21T15:54:37.089Z,0.97
2022-09-21T15:57:09.383Z,0.60
2022-09-21T15:59:36.078Z,0.50
2022-09-21T16:02:15.772Z,0.30
2022-09-21T16:04:52.772Z,0.30
2022-09-21T16:07:43.110Z,0.20
2022-09-21T16:10:48.999Z,0.27
2022-09-21T16:13:43.135Z,0.30
2022-09-21T16:16:15.008Z,0.20
2022-09-21T16:18:50.997Z,0.40
2022-09-21T16:21:20.838Z,0.33
2022-09-21T16:23:54.818Z,0.40
2022-09-21T16:26:35.254Z,0.50
2022-09-21T16:29:26.515Z,0.50
2022-09-21T16:32:18.965Z,0.40
2022-09-21T16:34:48.343Z,0.40
2022-09-21T16:37:28.117Z,0.40
2022-09-21T16:39:56.963Z,0.50
2022-09-21T16:42:27.901Z,1.63
2022-09-21T16:44:55.123Z,1.40
2022-09-21T16:47:26.819Z,1.17
2022-09-21T16:50:01.461Z,1.40
2022-09-21T16:52:29.490Z,0.93
2022-09-21T16:54:58.915Z,0.57
2022-09-21T16:57:26.603Z,0.80
2022-09-21T16:59:53.234Z,0.63
2022-09-21T17:02:20.016Z,0.70
2022-09-21T17:04:48.039Z,0.80
2022-09-21T17:07:15.612Z,0.80
2022-09-21T17:09:46.474Z,1.00
2022-09-21T17:12:17.877Z,0.80
2022-09-21T17:14:47.028Z,0.93
2022-09-21T17:17:17.214Z,0.90
2022-09-21T17:19:46.507Z,0.90
2022-09-21T17:22:17.297Z,0.90
2022-09-21T17:24:51.757Z,0.70
2022-09-21T17:27:26.830Z,0.60
2022-09-21T17:29:55.345Z,0.90
2022-09-21T17:32:24.692Z,1.30
2022-09-21T17:35:17.452Z,0.90
2022-09-21T17:37:47.082Z,0.70
2022-09-21T17:40:14.488Z,0.87
2022-09-21T17:42:46.574Z,0.80
2022-09-21T17:45:37.650Z,1.00
2022-09-21T17:48:05.245Z,0.63
2022-09-21T17:50:32.322Z,0.83
2022-09-21T17:53:17.989Z,1.00
2022-09-21T17:55:54.518Z,1.53
2022-09-21T17:58:59.843Z,1.00
2022-09-21T18:01:34.167Z,0.93
2022-09-21T18:04:01.197Z,0.80
2022-09-21T18:06:28.804Z,1.00
2022-09-21T18:08:55.971Z,1.23
2022-09-21T18:12:01.898Z,1.13
2022-09-21T18:14:31.690Z,1.10
2022-09-21T18:17:00.982Z,1.03
2022-09-21T18:19:27.626Z,0.97
2022-09-21T18:22:02.570Z,1.57
2022-09-21T18:24:33.697Z,1.80
2022-09-21T18:27:00.885Z,1.20
2022-09-21T18:29:40.880Z,1.60
2022-09-21T18:32:47.258Z,1.00
2022-09-21T18:35:51.118Z,0.97
2022-09-21T18:38:36.306Z,1.30
2022-09-21T18:41:39.278Z,1.33
2022-09-21T18:44:25.403Z,1.07
2022-09-21T18:47:00.818Z,1.23
2022-09-21T18:49:58.000Z,1.40
2022-09-21T18:52:40.737Z,1.20
2022-09-21T18:55:17.973Z,1.20
2022-09-21T18:57:45.455Z,0.90
2022-09-21T19:00:15.674Z,1.20
2022-09-21T19:02:59.056Z,1.20
2022-09-21T19:05:29.480Z,1.17
2022-09-21T19:08:11.353Z,1.30
2022-09-21T19:11:21.990Z,1.23
2022-09-21T19:14:04.993Z,1.37
2022-09-21T19:16:51.819Z,1.43
2022-09-21T19:19:37.030Z,1.50
2022-09-21T19:22:28.115Z,1.70
2022-09-21T19:25:19.227Z,1.50
2022-09-21T19:28:11.986Z,1.40
2022-09-21T19:30:39.748Z,1.70
2022-09-21T19:33:48.248Z,1.93
2022-09-21T19:36:09.621Z,1.27
2022-09-21T19:38:36.358Z,1.43
2022-09-21T19:41:05.414Z,1.87
2022-09-21T19:43:48.805Z,1.67
2022-09-21T19:46:41.779Z,1.47
2022-09-21T19:49:18.089Z,1.80
2022-09-21T19:51:49.685Z,1.77
2022-09-21T19:54:37.613Z,2.23
2022-09-21T19:57:41.478Z,2.23
2022-09-21T20:00:11.417Z,1.77
2022-09-21T20:03:14.157Z,1.80
2022-09-21T20:05:57.240Z,2.17
2022-09-21T20:08:33.763Z,1.80
2022-09-21T20:11:15.594Z,2.17
2022-09-21T20:13:47.715Z,1.83
2022-09-21T20:16:42.964Z,1.80
2022-09-21T20:19:57.786Z,1.90
2022-09-21T20:22:34.833Z,2.13
2022-09-21T20:25:25.415Z,2.90
2022-09-21T20:27:55.933Z,2.70
2022-09-21T20:30:28.499Z,3.17
2022-09-21T20:33:06.896Z,3.00
2022-09-21T20:35:34.617Z,2.70
2022-09-21T20:38:02.882Z,2.30
2022-09-21T20:40:32.426Z,2.43
2022-09-21T20:43:01.220Z,2.43
2022-09-21T20:45:28.508Z,2.50
2022-09-21T20:47:57.298Z,2.67
2022-09-21T20:50:33.364Z,2.40
2022-09-21T20:53:00.250Z,2.40
2022-09-21T20:55:28.253Z,5.20
2022-09-21T20:57:55.140Z,3.73
2022-09-21T21:00:21.801Z,3.33
2022-09-21T21:02:48.432Z,4.23
2022-09-21T21:05:15.121Z,3.93
2022-09-21T21:07:44.598Z,6.23
2022-09-21T21:10:16.549Z,4.73
2022-09-21T21:12:43.131Z,5.73
2022-09-21T21:15:11.527Z,4.23
2022-09-21T21:17:39.131Z,3.90
2022-09-21T21:20:07.183Z,3.70
2022-09-21T21:22:33.845Z,3.50
2022-09-21T21:25:00.794Z,2.83
2022-09-21T21:27:28.093Z,2.50
2022-09-21T21:29:55.405Z,2.13
2022-09-21T21:32:25.250Z,2.20
2022-09-21T21:34:53.122Z,2.37
2022-09-21T21:37:21.089Z,1.90
2022-09-21T21:39:48.021Z,2.00
2022-09-21T21:42:14.753Z,1.80
2022-09-21T21:44:41.770Z,2.03
2022-09-21T21:47:27.886Z,1.80
2022-09-21T21:49:55.159Z,1.70
2022-09-21T21:52:21.948Z,1.80
2022-09-21T21:54:48.543Z,1.60
2022-09-21T21:57:15.182Z,1.70
2022-09-21T21:59:43.297Z,1.83
2022-09-21T22:02:13.060Z,1.50
2022-09-21T22:04:50.070Z,1.87
2022-09-21T22:07:16.978Z,1.73
2022-09-21T22:09:46.695Z,1.57
2022-09-21T22:12:15.795Z,1.60
2022-09-21T22:14:49.009Z,1.80
2022-09-21T22:17:15.953Z,1.80
2022-09-21T22:19:45.679Z,1.97
2022-09-21T22:22:12.361Z,1.70
2022-09-21T22:24:39.269Z,1.80
2022-09-21T22:27:05.925Z,2.23
2022-09-21T22:29:32.740Z,1.73
2022-09-21T22:31:59.966Z,1.93
2022-09-21T22:34:26.702Z,1.87
2022-09-21T22:36:53.917Z,1.80
2022-09-21T22:39:20.576Z,1.67
2022-09-21T22:41:47.181Z,1.87
2022-09-21T22:44:13.801Z,1.60
2022-09-21T22:46:40.701Z,1.50
2022-09-21T22:49:07.834Z,1.70
2022-09-21T22:51:35.116Z,1.70
2022-09-21T22:54:01.819Z,1.57
2022-09-21T22:56:32.781Z,1.63
2022-09-21T22:59:04.171Z,1.57
2022-09-21T23:01:37.468Z,1.90
2022-09-21T23:04:24.431Z,2.30
2022-09-21T23:07:05.238Z,2.20
2022-09-21T23:09:32.009Z,2.37
2022-09-21T23:12:01.599Z,1.77
2022-09-21T23:14:29.542Z,1.97
2022-09-21T23:16:56.226Z,1.93
2022-09-21T23:19:22.810Z,1.97
2022-09-21T23:21:53.111Z,1.43
2022-09-21T23:24:20.313Z,1.73
2022-09-21T23:26:47.610Z,1.70
2022-09-21T23:29:19.570Z,1.70
2022-09-21T23:31:46.597Z,1.70
2022-09-21T23:34:16.946Z,1.70
2022-09-21T23:36:50.739Z,1.90
2022-09-21T23:39:18.656Z,1.70
2022-09-21T23:41:45.378Z,1.77
2022-09-21T23:44:12.215Z,1.97
2022-09-21T23:46:40.218Z,1.83
2022-09-21T23:49:07.339Z,2.00
2022-09-21T23:51:34.555Z,1.50
2022-09-21T23:54:01.485Z,1.83
2022-09-21T23:56:28.930Z,1.43
2022-09-21T23:58:56.369Z,2.00
